Sylvan Township, Michigan
Current Conditions -  °F | °C
As of 2:40 PM on Thursday 27 Nov 2014 (Local Time) from KARB Reporting Station
Light Snow Light Snow  
Wind Chill: 22°   Ceiling: 2700
Heat Index: 32°   Visibility: 8mi
Dew Point: 22°   Wind: 15mph
Humidity: 66%   Direction: 290°WNW
Pressure: 30.16"   Gusts: NA
Location:  42.3129°N, 84.0322°W
Report Text: KARB 271940Z 29013KT 8SM -SN BKN027 OVC033 00/M06 A3016 RMK AO2 SNB35 P0000 T00001056
Loading
Personal Weather Stations






























Interactive Weather Map New forecast layout! Learn more

10-Day Weather Forecast

Advertisements
Track Severe Weather on mobile